Terminal Aerodrome Forecast
Issued by NWS Shreveport, LA

Home | Current Version | Previous Version | Text Only | Print | Product List | Glossary On
Versions: 1 2 3 4 5 6 7 8 9 10 11 12 13
000
FTUS44 KSHV 202320
TAFLFK
TAF
KLFK 202320Z 2100/2124 VRB03KT P6SM VCTS SCT050CB SCT120 BKN250
      TEMPO 2100/2101 VRB10G20KT 3SM -TSRA BR BKN040CB
     FM210300 VRB03KT P6SM FEW050 SCT250
      TEMPO 2110/2113 5SM BR
     FM211400 14004KT P6SM SCT045 SCT250
     FM211800 13006KT P6SM BKN050=

USA.gov is the U.S. government's official web portal to all federal, state and local government web resources and services.